Time;durP1;ratioP1;P1;durP2;ratioP2;P2;SDS_P1;SDS_P2;PMS_P1;PMS_P2;Temp;Humidity;BMP_temperature;BMP_pressure;BME280_temperature;BME280_humidity;BME280_pressure;Samples;Min_cycle;Max_cycle;Signal;HPM_P1;HPM_P2
2023/09/18 00:00:56;;;;;;;16.70;12.80;;;;;;;-143.21;79.29;72076.16;5027641;28;20226;-83
2023/09/18 00:03:24;;;;;;;18.98;13.15;;;;;;;-143.21;79.03;72074.16;5027122;28;20308;-84
2023/09/18 00:05:53;;;;;;;15.95;12.35;;;;;;;-143.21;79.10;72076.16;5018102;28;20208;-83
2023/09/18 00:08:20;;;;;;;18.17;13.07;;;;;;;-143.21;79.15;72068.22;5021744;28;20639;-83
2023/09/18 00:10:50;;;;;;;20.05;13.00;;;;;;;-143.21;79.24;72070.19;5024824;28;20281;-83
2023/09/18 00:13:17;;;;;;;20.23;13.93;;;;;;;-143.21;79.12;72070.19;5024740;28;20616;-83
2023/09/18 00:15:44;;;;;;;18.90;13.90;;;;;;;-143.21;78.64;72050.38;5029140;28;20234;-82
2023/09/18 00:18:11;;;;;;;19.38;14.63;;;;;;;-143.21;78.41;72052.34;5024612;28;20199;-82
2023/09/18 00:20:38;;;;;;;18.75;14.57;;;;;;;-143.21;78.61;72062.25;5023646;28;20235;-82
2023/09/18 00:23:06;;;;;;;20.83;14.98;;;;;;;-143.21;78.69;72058.31;5024530;28;20272;-83
2023/09/18 00:25:33;;;;;;;21.70;15.77;;;;;;;-143.21;79.05;72074.16;5025626;28;20268;-82
2023/09/18 00:28:00;;;;;;;20.00;14.30;;;;;;;-143.21;79.32;72078.13;5026689;28;20299;-82
2023/09/18 00:30:27;;;;;;;21.80;14.75;;;;;;;-143.21;78.99;72072.19;5023831;28;21021;-82
2023/09/18 00:32:54;;;;;;;25.98;16.63;;;;;;;-143.21;79.03;72070.19;5020432;28;20207;-82
2023/09/18 00:35:22;;;;;;;22.25;17.13;;;;;;;-143.21;79.29;72078.13;5029781;28;20211;-81
2023/09/18 00:37:49;;;;;;;23.67;17.65;;;;;;;-143.21;79.50;72084.06;5027768;28;20199;-81
2023/09/18 00:40:17;;;;;;;23.83;16.45;;;;;;;-143.21;79.84;72088.03;5027296;28;20203;-81
2023/09/18 00:42:44;;;;;;;25.05;17.67;;;;;;;-143.21;80.26;72099.94;5021219;28;20223;-81
2023/09/18 00:45:11;;;;;;;26.73;18.73;;;;;;;-143.21;80.42;72099.94;5020545;28;20210;-81
2023/09/18 00:47:38;;;;;;;26.08;17.77;;;;;;;-143.21;80.31;72097.97;5022239;28;20214;-81
2023/09/18 00:50:08;;;;;;;24.00;18.00;;;;;;;-143.21;80.06;72097.97;5020613;28;20302;-81
2023/09/18 00:52:35;;;;;;;23.65;17.88;;;;;;;-143.21;80.08;72094.00;5014045;28;20215;-81
2023/09/18 00:55:03;;;;;;;26.17;18.50;;;;;;;-143.21;79.28;72094.00;5019365;28;20203;-82
2023/09/18 00:57:31;;;;;;;28.48;19.17;;;;;;;-143.21;79.82;72103.91;5023566;28;20207;-80
2023/09/18 00:59:58;;;;;;;24.52;18.13;;;;;;;-143.21;80.03;72105.91;5015864;28;20270;-81
2023/09/18 01:02:26;;;;;;;26.70;18.23;;;;;;;-143.21;79.45;72115.81;5018385;28;20239;-81
2023/09/18 01:04:53;;;;;;;23.42;17.45;;;;;;;-143.21;79.36;72123.75;5028210;28;20203;-81
2023/09/18 01:07:20;;;;;;;19.85;16.02;;;;;;;-143.21;79.71;72131.69;5029129;28;20210;-81
2023/09/18 01:09:46;;;;;;;22.35;17.98;;;;;;;-143.21;79.80;72129.69;5023734;28;20713;-81
2023/09/18 01:12:20;;;;;;;19.52;16.20;;;;;;;-143.21;79.47;72129.69;5023975;28;20252;-81
2023/09/18 01:14:56;;;;;;;26.92;18.10;;;;;;;-143.21;79.82;72135.63;5023235;28;20768;-81
2023/09/18 01:17:23;;;;;;;24.30;17.05;;;;;;;-143.21;79.80;72133.66;5023242;28;20213;-81
2023/09/18 01:19:50;;;;;;;21.48;16.77;;;;;;;-143.21;79.41;72129.69;5023204;28;20210;-81
2023/09/18 01:22:19;;;;;;;24.02;17.30;;;;;;;-143.21;79.29;72133.66;5018485;28;20286;-82
2023/09/18 01:24:48;;;;;;;22.33;17.27;;;;;;;-143.21;79.13;72129.69;5029125;28;20673;-81
2023/09/18 01:27:16;;;;;;;25.50;17.25;;;;;;;-143.21;79.44;72131.69;5025748;28;20198;-81
2023/09/18 01:29:43;;;;;;;23.00;16.10;;;;;;;-143.21;78.82;72133.66;5024254;28;20272;-81
2023/09/18 01:32:10;;;;;;;22.35;15.95;;;;;;;-143.21;78.70;72137.63;5021917;28;20235;-82
2023/09/18 01:34:41;;;;;;;27.70;16.30;;;;;;;-143.21;78.45;72143.56;5022395;28;20846;-82
2023/09/18 01:37:10;;;;;;;21.98;15.80;;;;;;;-143.21;78.45;72153.47;5021867;28;20203;-81
2023/09/18 01:39:37;;;;;;;23.92;16.60;;;;;;;-143.21;78.53;72155.47;5014983;28;21072;-82
2023/09/18 01:42:07;;;;;;;19.77;15.73;;;;;;;-143.21;79.45;72171.34;5020791;28;20199;-83
2023/09/18 01:44:34;;;;;;;27.80;17.00;;;;;;;-143.21;79.53;72173.31;5021364;28;20651;-83
2023/09/18 01:47:04;;;;;;;24.02;16.67;;;;;;;-143.21;79.31;72177.28;5020621;28;20206;-82
2023/09/18 01:49:32;;;;;;;23.52;15.82;;;;;;;-143.21;79.63;72177.28;5024543;28;20210;-82
2023/09/18 01:51:59;;;;;;;27.98;15.88;;;;;;;-143.21;80.00;72185.22;5024552;28;20222;-82
2023/09/18 01:54:26;;;;;;;22.75;16.20;;;;;;;-143.21;79.47;72185.22;5025940;28;20207;-81
2023/09/18 01:56:54;;;;;;;25.13;16.17;;;;;;;-143.21;79.71;72191.16;5023644;28;20204;-81
2023/09/18 01:59:23;;;;;;;23.50;15.95;;;;;;;-143.21;80.47;72201.09;5023882;28;20225;-81
2023/09/18 02:01:50;;;;;;;27.83;16.23;;;;;;;-143.21;80.43;72201.09;5021557;28;20631;-80
2023/09/18 02:04:18;;;;;;;21.77;17.13;;;;;;;-143.21;80.67;72203.06;5024945;28;20309;-81
2023/09/18 02:06:45;;;;;;;24.77;17.08;;;;;;;-143.21;80.39;72199.09;5014483;28;20207;-80
2023/09/18 02:09:12;;;;;;;29.95;17.75;;;;;;;-143.21;80.60;72201.09;5018224;28;20210;-81
2023/09/18 02:11:40;;;;;;;23.83;17.15;;;;;;;-143.21;80.78;72205.03;5018062;28;20222;-82
2023/09/18 02:14:09;;;;;;;22.50;16.70;;;;;;;-143.21;80.61;72203.06;5028209;28;20222;-82
2023/09/18 02:16:40;;;;;;;23.23;16.98;;;;;;;-143.21;80.67;72197.13;5024993;28;20214;-82
2023/09/18 02:19:08;;;;;;;22.85;16.80;;;;;;;-143.21;80.60;72197.13;5019375;28;20238;-83
2023/09/18 02:21:35;;;;;;;21.42;16.95;;;;;;;-143.21;80.76;72203.06;5024135;28;20206;-83
2023/09/18 02:24:01;;;;;;;27.80;17.50;;;;;;;-143.21;81.05;72205.03;5022719;28;20673;-83
2023/09/18 02:26:28;;;;;;;25.17;16.52;;;;;;;-143.21;80.98;72205.03;5024140;28;20203;-83
2023/09/18 02:28:56;;;;;;;23.15;17.60;;;;;;;-143.21;80.74;72201.09;5020538;28;20214;-82
2023/09/18 02:31:23;;;;;;;23.90;16.80;;;;;;;-143.21;80.58;72199.09;5019066;28;20199;-81
2023/09/18 02:33:51;;;;;;;27.67;17.50;;;;;;;-143.21;80.55;72205.03;5018760;28;20281;-83
2023/09/18 02:36:18;;;;;;;23.23;16.98;;;;;;;-143.21;80.92;72205.03;5028450;28;20302;-83
2023/09/18 02:38:45;;;;;;;22.15;17.05;;;;;;;-143.21;80.83;72201.09;5025473;28;20207;-82
2023/09/18 02:41:12;;;;;;;21.83;15.85;;;;;;;-143.21;80.87;72205.03;5022743;28;20666;-83
2023/09/18 02:43:39;;;;;;;26.95;17.13;;;;;;;-143.21;81.02;72203.06;5017699;28;20202;-82
2023/09/18 02:46:06;;;;;;;25.77;17.67;;;;;;;-143.21;81.05;72212.97;5013317;28;20222;-83
2023/09/18 02:48:33;;;;;;;26.33;16.83;;;;;;;-143.21;80.80;72212.97;5026487;28;20238;-82
2023/09/18 02:51:01;;;;;;;28.17;18.02;;;;;;;-143.21;80.66;72212.97;5024331;28;20202;-82
2023/09/18 02:53:29;;;;;;;23.95;18.30;;;;;;;-143.21;80.68;72216.94;5022921;28;20234;-83
2023/09/18 02:56:00;;;;;;;26.23;17.43;;;;;;;-143.21;80.71;72214.97;5016688;28;20203;-83
2023/09/18 02:58:30;;;;;;;27.73;18.57;;;;;;;-143.21;80.75;72222.91;5023386;28;20202;-83
2023/09/18 03:00:58;;;;;;;24.60;18.58;;;;;;;-143.21;81.02;72226.84;5015990;28;20226;-83
2023/09/18 03:03:25;;;;;;;28.70;18.50;;;;;;;-143.21;81.13;72226.84;5017309;28;20263;-83
2023/09/18 03:05:52;;;;;;;27.50;17.98;;;;;;;-143.21;81.24;72224.88;5023715;28;20210;-82
2023/09/18 03:08:20;;;;;;;25.37;18.87;;;;;;;-143.21;81.46;72230.81;5021368;28;20211;-82
2023/09/18 03:10:47;;;;;;;23.13;18.17;;;;;;;-143.21;81.42;72234.78;5018598;28;20206;-82
2023/09/18 03:13:15;;;;;;;23.83;17.13;;;;;;;-143.21;81.56;72230.81;5024030;28;20219;-82
2023/09/18 03:15:46;;;;;;;29.58;16.95;;;;;;;-143.21;81.91;72224.88;5021729;28;20202;-82
2023/09/18 03:18:14;;;;;;;27.63;17.20;;;;;;;-143.21;81.66;72232.81;5021837;28;20203;-82
2023/09/18 03:20:41;;;;;;;24.45;17.27;;;;;;;-143.21;81.86;72230.81;5018532;28;20286;-84
2023/09/18 03:23:08;;;;;;;23.45;17.48;;;;;;;-143.21;81.61;72228.84;5025138;28;20531;-84
2023/09/18 03:25:37;;;;;;;23.08;17.63;;;;;;;-143.21;81.89;72226.84;5018906;28;20219;-83
2023/09/18 03:28:04;;;;;;;24.13;17.17;;;;;;;-143.21;81.73;72218.94;5020576;28;20226;-84
2023/09/18 03:30:31;;;;;;;24.63;17.13;;;;;;;-143.21;81.97;72222.91;5019002;28;20210;-82
2023/09/18 03:32:58;;;;;;;28.00;17.60;;;;;;;-143.21;82.10;72222.91;5022796;28;20326;-84
2023/09/18 03:35:25;;;;;;;22.23;16.40;;;;;;;-143.21;82.36;72216.94;5018326;28;20213;-84
2023/09/18 03:37:54;;;;;;;25.03;16.93;;;;;;;-143.21;82.36;72218.94;5023257;28;20199;-78
2023/09/18 03:40:22;;;;;;;23.83;17.17;;;;;;;-143.21;82.53;72216.94;5020120;28;20227;-80
2023/09/18 03:42:50;;;;;;;25.65;17.08;;;;;;;-143.21;82.70;72218.94;5020357;28;20577;-81
2023/09/18 03:45:18;;;;;;;24.63;16.80;;;;;;;-143.21;82.49;72212.97;5017608;28;20213;-80
2023/09/18 03:47:45;;;;;;;24.58;16.63;;;;;;;-143.21;82.54;72211.00;5021491;28;20338;-79
2023/09/18 03:50:13;;;;;;;26.38;16.95;;;;;;;-143.21;82.56;72203.06;5023942;28;20234;-80
2023/09/18 03:52:41;;;;;;;23.30;17.20;;;;;;;-143.21;82.45;72211.00;5025309;28;20719;-80
2023/09/18 03:55:08;;;;;;;23.33;16.88;;;;;;;-143.21;82.44;72205.03;5015749;28;20222;-80
2023/09/18 03:57:36;;;;;;;19.30;16.60;;;;;;;-143.21;82.33;72207.03;5026687;28;20249;-79
2023/09/18 04:00:07;;;;;;;29.23;16.90;;;;;;;-143.21;82.42;72203.06;5024910;28;20198;-80
2023/09/18 04:02:33;;;;;;;27.00;18.00;;;;;;;-143.21;82.40;72195.13;5023877;28;20254;-80
2023/09/18 04:05:00;;;;;;;23.38;18.00;;;;;;;-143.21;82.33;72201.09;5021785;28;20671;-80
2023/09/18 04:07:27;;;;;;;22.95;18.00;;;;;;;-143.21;82.49;72197.13;5026679;28;20203;-80
2023/09/18 04:09:53;;;;;;;24.30;18.63;;;;;;;-143.21;82.52;72195.13;5026545;28;20214;-79
2023/09/18 04:12:20;;;;;;;25.80;18.35;;;;;;;-143.21;81.86;72185.22;5023049;28;20222;-80
2023/09/18 04:14:48;;;;;;;25.55;18.95;;;;;;;-143.21;81.62;72185.22;5025988;28;20214;-80
2023/09/18 04:17:16;;;;;;;26.60;18.70;;;;;;;-143.21;81.74;72191.16;5022939;28;20586;-80
2023/09/18 04:19:43;;;;;;;25.90;18.20;;;;;;;-143.21;81.50;72189.19;5020422;28;20207;-80
2023/09/18 04:22:11;;;;;;;27.02;19.02;;;;;;;-143.21;81.48;72193.16;5023447;28;20207;-80
2023/09/18 04:24:39;;;;;;;25.77;18.65;;;;;;;-143.21;81.36;72193.16;5022381;28;20678;-84
2023/09/18 04:27:06;;;;;;;27.30;19.52;;;;;;;-143.21;81.39;72197.13;5018092;28;20222;-83
2023/09/18 04:29:33;;;;;;;27.25;19.73;;;;;;;-143.21;81.49;72203.06;5015791;28;20645;-83
2023/09/18 04:32:00;;;;;;;28.73;19.08;;;;;;;-143.21;81.64;72203.06;5022078;28;20203;-83
2023/09/18 04:34:28;;;;;;;29.20;20.02;;;;;;;-143.21;81.65;72203.06;5017374;28;20215;-84
2023/09/18 04:36:55;;;;;;;35.20;21.35;;;;;;;-143.21;81.63;72205.03;5022103;28;20215;-84
2023/09/18 04:39:22;;;;;;;34.72;21.05;;;;;;;-143.21;81.58;72207.03;5027374;28;20210;-83
2023/09/18 04:41:49;;;;;;;37.92;20.83;;;;;;;-143.21;81.42;72203.06;5027002;28;20200;-82
2023/09/18 04:44:17;;;;;;;37.58;20.75;;;;;;;-143.21;81.55;72197.13;5023702;28;20199;-82
2023/09/18 04:46:44;;;;;;;33.78;20.50;;;;;;;-143.21;81.55;72197.13;5028148;28;20213;-81
2023/09/18 04:49:11;;;;;;;33.92;21.10;;;;;;;-143.21;81.58;72197.13;5020304;28;20674;-84
2023/09/18 04:51:41;;;;;;;32.28;20.00;;;;;;;-143.21;81.29;72193.16;5023405;28;20267;-85
2023/09/18 04:54:08;;;;;;;29.30;19.98;;;;;;;-143.21;81.48;72197.13;5019562;28;20321;-84
2023/09/18 04:56:35;;;;;;;32.70;19.73;;;;;;;-143.21;81.69;72197.13;5021156;28;20211;-84
2023/09/18 04:59:02;;;;;;;35.10;20.25;;;;;;;-143.21;81.74;72193.16;5018983;28;20210;-84
2023/09/18 05:01:30;;;;;;;33.50;20.17;;;;;;;-143.21;81.65;72189.19;5026350;28;20195;-84
2023/09/18 05:03:57;;;;;;;37.55;21.42;;;;;;;-143.21;81.35;72183.22;5018581;28;20236;-82
2023/09/18 05:06:23;;;;;;;35.33;20.05;;;;;;;-143.21;81.24;72179.25;5025220;28;20210;-84
2023/09/18 05:08:53;;;;;;;29.95;19.88;;;;;;;-143.21;81.25;72179.25;5026590;28;20206;-82
2023/09/18 05:11:20;;;;;;;29.83;19.17;;;;;;;-143.21;81.56;72177.28;5027085;28;20218;-83
2023/09/18 05:13:47;;;;;;;32.58;19.63;;;;;;;-143.21;81.09;72165.38;5025578;28;20210;-83
2023/09/18 05:16:14;;;;;;;32.95;20.13;;;;;;;-143.21;80.68;72165.38;5015926;28;20207;-83
2023/09/18 05:18:41;;;;;;;28.95;19.23;;;;;;;-143.21;80.38;72165.38;5019648;28;20199;-83
2023/09/18 05:21:10;;;;;;;29.02;19.33;;;;;;;-143.21;80.27;72167.38;5027069;28;20217;-82
2023/09/18 05:23:37;;;;;;;27.90;18.90;;;;;;;-143.21;80.11;72159.44;5022487;28;20223;-82
2023/09/18 05:26:05;;;;;;;42.72;19.40;;;;;;;-143.21;80.19;72155.47;5020678;28;20211;-82
2023/09/18 05:28:32;;;;;;;28.58;19.08;;;;;;;-143.21;79.52;72155.47;5017475;28;20257;-82
2023/09/18 05:30:59;;;;;;;29.42;19.40;;;;;;;-143.21;79.56;72151.50;5021617;28;20269;-81
2023/09/18 05:33:26;;;;;;;31.35;19.73;;;;;;;-143.21;79.64;72151.50;5020501;28;20215;-82
2023/09/18 05:35:53;;;;;;;36.15;20.30;;;;;;;-143.21;79.22;72145.56;5020095;28;20573;-82
2023/09/18 05:38:20;;;;;;;34.05;20.48;;;;;;;-143.21;79.10;72139.59;5018849;28;20195;-81
2023/09/18 05:40:47;;;;;;;31.50;20.23;;;;;;;-143.21;79.00;72139.59;5019953;28;20240;-90
2023/09/18 05:43:15;;;;;;;33.10;19.60;;;;;;;-143.21;79.42;72141.59;5022266;28;20201;-90
2023/09/18 05:45:42;;;;;;;32.97;20.00;;;;;;;-143.21;79.40;72139.59;5028001;28;20207;-88
2023/09/18 05:48:09;;;;;;;32.83;19.33;;;;;;;-143.21;78.98;72127.72;5021501;28;20208;-88
2023/09/18 05:50:36;;;;;;;34.38;20.33;;;;;;;-143.21;78.71;72123.75;5015099;28;20211;-88
2023/09/18 05:53:04;;;;;;;34.28;20.27;;;;;;;-143.21;78.61;72121.75;5019299;28;20249;-88
2023/09/18 05:55:32;;;;;;;32.72;20.23;;;;;;;-143.21;78.26;72111.84;5029031;28;20226;-89
2023/09/18 05:57:59;;;;;;;30.45;19.50;;;;;;;-143.21;77.95;72099.94;5025205;28;20303;-89
2023/09/18 06:00:30;;;;;;;34.80;20.08;;;;;;;-143.21;78.21;72097.97;5022568;28;20244;-89
2023/09/18 06:02:58;;;;;;;31.27;20.10;;;;;;;-143.21;77.81;72082.09;5013803;28;20242;-88
2023/09/18 06:05:25;;;;;;;32.13;19.88;;;;;;;-143.21;76.73;72074.16;5027292;28;20241;-89
2023/09/18 06:07:53;;;;;;;31.27;19.85;;;;;;;-143.21;77.08;72056.31;5021188;28;20202;-88
2023/09/18 06:10:19;;;;;;;29.08;20.38;;;;;;;-143.21;76.59;72050.38;5022427;28;20211;-89
2023/09/18 06:12:46;;;;;;;29.52;20.00;;;;;;;-143.21;76.16;72042.44;5019834;28;20227;-88
2023/09/18 06:15:14;;;;;;;30.73;19.80;;;;;;;-143.21;75.96;72034.50;5015517;28;20619;-88
2023/09/18 06:17:43;;;;;;;29.30;20.38;;;;;;;-143.21;75.75;72032.53;5019352;28;20203;-90
2023/09/18 06:20:12;;;;;;;28.45;19.85;;;;;;;-143.21;75.47;72014.69;5028752;28;20219;-90
2023/09/18 06:22:40;;;;;;;34.08;19.20;;;;;;;-143.21;75.12;72010.72;5031840;28;20509;-84
2023/09/18 06:25:09;;;;;;;31.08;20.17;;;;;;;-143.21;74.79;72004.75;5029990;28;20207;-90
2023/09/18 06:27:37;;;;;;;27.75;20.25;;;;;;;-143.21;74.32;71994.84;5023500;28;20192;-89
2023/09/18 06:30:04;;;;;;;28.70;19.60;;;;;;;-143.21;74.32;72000.78;5026958;28;20195;-85
2023/09/18 06:32:31;;;;;;;27.70;19.13;;;;;;;-143.21;74.17;71984.94;5021988;28;20187;-89
2023/09/18 06:35:00;;;;;;;27.17;18.77;;;;;;;-143.21;72.99;71977.00;5017841;28;20211;-89
2023/09/18 06:37:27;;;;;;;30.25;17.98;;;;;;;-143.21;73.18;71977.00;5026470;28;20584;-89
2023/09/18 06:39:54;;;;;;;26.02;19.48;;;;;;;-143.21;73.44;71969.06;5031023;28;20210;-88
2023/09/18 06:42:21;;;;;;;29.30;18.67;;;;;;;-143.21;73.25;71965.09;5026861;28;20290;-89
2023/09/18 06:44:48;;;;;;;29.02;18.00;;;;;;;-143.21;73.05;71961.13;5022972;28;20206;-87
2023/09/18 06:47:16;;;;;;;29.83;18.80;;;;;;;-143.21;72.39;71951.22;5023170;28;20201;-88
2023/09/18 06:49:43;;;;;;;28.17;18.40;;;;;;;-143.21;72.02;71945.28;5022882;28;20257;-89
2023/09/18 06:52:12;;;;;;;28.85;17.27;;;;;;;-143.21;71.75;71937.34;5022932;28;20460;-89
2023/09/18 06:54:40;;;;;;;26.60;16.20;;;;;;;-143.21;71.41;71923.47;5019819;28;20257;-89
2023/09/18 06:57:07;;;;;;;28.92;15.93;;;;;;;-143.21;71.13;71931.38;5020097;28;20203;-89
2023/09/18 06:59:34;;;;;;;26.60;17.20;;;;;;;-143.21;71.32;71925.44;5025228;28;20216;-89
2023/09/18 07:02:02;;;;;;;27.48;17.38;;;;;;;-143.21;71.56;71921.47;5016905;28;20655;-88
2023/09/18 07:04:29;;;;;;;24.65;16.90;;;;;;;-143.21;71.40;71913.53;5024429;28;20202;-88
2023/09/18 07:06:56;;;;;;;23.13;16.10;;;;;;;-143.21;70.29;71905.63;5022927;28;20202;-89
2023/09/18 07:09:25;;;;;;;25.55;16.20;;;;;;;-143.21;70.40;71891.72;5023504;28;20203;-88
2023/09/18 07:11:53;;;;;;;23.45;15.65;;;;;;;-143.21;70.18;71883.81;5020810;28;20192;-88
2023/09/18 07:14:29;;;;;;;22.98;15.48;;;;;;;-143.21;69.67;71873.88;5026271;28;20229;-90
2023/09/18 07:16:57;;;;;;;22.90;15.20;;;;;;;-143.21;69.23;71875.88;5025863;28;20202;-89
2023/09/18 07:19:25;;;;;;;21.33;15.65;;;;;;;-143.21;69.24;71862.00;5023732;28;20233;-89
2023/09/18 07:21:52;;;;;;;23.90;16.40;;;;;;;-143.21;69.24;71865.97;5029438;28;20314;-89
2023/09/18 07:24:20;;;;;;;29.80;15.93;;;;;;;-143.21;68.38;71854.06;5017385;28;20221;-89
2023/09/18 07:26:49;;;;;;;24.83;15.95;;;;;;;-143.21;68.45;71852.06;5026852;28;20209;-89
2023/09/18 07:29:17;;;;;;;24.10;16.33;;;;;;;-143.21;68.31;71852.06;5026951;28;20206;-89
2023/09/18 07:31:44;;;;;;;24.25;15.50;;;;;;;-143.21;68.81;71852.06;5027210;28;20195;-89
2023/09/18 07:34:11;;;;;;;23.52;16.02;;;;;;;-143.21;68.71;71852.06;5019421;28;20231;-90
2023/09/18 07:36:38;;;;;;;24.33;15.82;;;;;;;-143.21;68.11;71854.06;5023704;28;20643;-90
2023/09/18 07:39:05;;;;;;;20.75;15.68;;;;;;;-143.21;67.69;71848.09;5025421;28;21635;-89
2023/09/18 07:41:33;;;;;;;23.48;14.80;;;;;;;-143.21;67.80;71840.19;5024995;28;20215;-88
2023/09/18 07:44:01;;;;;;;24.50;15.30;;;;;;;-143.21;67.82;71838.19;5026219;28;20595;-88
2023/09/18 07:46:28;;;;;;;19.52;15.68;;;;;;;-143.21;67.84;71826.28;5022463;28;20265;-89
2023/09/18 07:48:55;;;;;;;23.55;16.88;;;;;;;-143.21;67.43;71822.34;5027616;28;20203;-88
2023/09/18 07:51:22;;;;;;;21.58;15.38;;;;;;;-143.21;66.86;71818.38;5018933;28;20222;-88
2023/09/18 07:53:49;;;;;;;23.23;15.20;;;;;;;-143.21;66.56;71832.25;5018959;28;20227;-89
2023/09/18 07:56:18;;;;;;;21.85;15.90;;;;;;;-143.21;66.57;71824.31;5025858;28;20217;-88
2023/09/18 07:58:46;;;;;;;21.77;16.27;;;;;;;-143.21;66.67;71822.34;5022693;28;20207;-88
2023/09/18 08:01:16;;;;;;;28.80;16.73;;;;;;;-143.21;66.75;71820.34;5026109;28;20573;-89
2023/09/18 08:03:43;;;;;;;23.48;16.30;;;;;;;-143.21;66.76;71818.38;5027847;28;20321;-89
2023/09/18 08:06:11;;;;;;;24.23;15.82;;;;;;;-143.21;67.04;71806.47;5025364;28;20201;-90
2023/09/18 08:08:39;;;;;;;25.88;16.80;;;;;;;-143.21;66.53;71798.53;5029000;28;20346;-88
2023/09/18 08:11:09;;;;;;;23.38;16.30;;;;;;;-143.21;66.53;71790.59;5021248;28;20215;-89
2023/09/18 08:13:36;;;;;;;27.60;17.58;;;;;;;-143.21;66.40;71794.56;5031254;28;20262;-89
2023/09/18 08:16:04;;;;;;;19.58;16.00;;;;;;;-143.21;66.52;71782.69;5021643;28;20203;-89
2023/09/18 08:18:32;;;;;;;28.33;16.58;;;;;;;-143.21;66.01;71780.69;5023041;28;20269;-89
2023/09/18 08:21:00;;;;;;;22.20;16.48;;;;;;;-143.21;65.85;71770.78;5018240;28;20653;-90
2023/09/18 08:23:27;;;;;;;22.13;15.98;;;;;;;-143.21;65.17;71762.84;5022410;28;20222;-89
2023/09/18 08:25:56;;;;;;;20.38;15.68;;;;;;;-143.21;65.26;71752.94;5025872;28;20199;-88
2023/09/18 08:28:23;;;;;;;28.73;16.25;;;;;;;-143.21;65.38;71746.97;5027314;28;20211;-89
2023/09/18 08:30:49;;;;;;;22.35;15.98;;;;;;;-143.21;65.19;71733.09;5021539;28;20643;-88
2023/09/18 08:33:16;;;;;;;22.08;15.50;;;;;;;-143.21;65.21;71723.19;5018843;28;20583;-89
2023/09/18 08:35:46;;;;;;;23.13;16.30;;;;;;;-143.21;64.81;71705.34;5026287;28;20214;-88
2023/09/18 08:38:13;;;;;;;22.42;15.30;;;;;;;-143.21;63.78;71691.47;5023745;28;20202;-88
2023/09/18 08:40:41;;;;;;;20.00;14.60;;;;;;;-143.21;63.38;71683.53;5017570;28;20307;-88
2023/09/18 08:43:09;;;;;;;20.63;14.48;;;;;;;-143.21;63.17;71669.66;5026760;28;20210;-88
2023/09/18 08:45:42;;;;;;;19.75;13.52;;;;;;;-143.21;62.23;71655.78;5020777;28;20223;-88
2023/09/18 08:48:09;;;;;;;19.50;13.85;;;;;;;-143.21;61.78;71641.91;5024878;28;20187;-88
2023/09/18 08:50:37;;;;;;;18.42;13.60;;;;;;;-143.21;61.68;71626.03;5030992;28;20206;-88
2023/09/18 08:53:07;;;;;;;22.48;13.27;;;;;;;-143.21;61.25;71614.13;5021470;28;20205;-87
2023/09/18 08:55:35;;;;;;;22.85;13.40;;;;;;;-143.21;60.75;71594.31;5025730;28;20223;-89
2023/09/18 08:58:02;;;;;;;16.08;10.63;;;;;;;-143.21;61.20;71576.47;5020913;28;20305;-85
2023/09/18 09:00:29;;;;;;;18.17;13.07;;;;;;;-143.21;60.33;71546.72;5019622;28;20214;-91
2023/09/18 09:02:56;;;;;;;19.75;12.32;;;;;;;-143.21;59.38;71528.88;5021401;28;20646;-90
2023/09/18 09:05:23;;;;;;;21.00;12.52;;;;;;;-143.21;58.16;71499.13;5021770;28;20202;-91
2023/09/18 09:07:51;;;;;;;16.35;11.50;;;;;;;-143.21;57.84;71467.41;5027893;28;20217;-88
2023/09/18 09:10:19;;;;;;;16.27;11.90;;;;;;;-143.21;57.25;71429.75;5027343;28;20286;-87
2023/09/18 09:12:54;;;;;;;15.80;11.55;;;;;;;-143.21;56.19;71403.97;5019263;28;20198;-87
2023/09/18 09:15:22;;;;;;;19.17;11.80;;;;;;;-143.21;56.00;71386.13;5023755;28;20685;-88
2023/09/18 09:17:51;;;;;;;13.85;10.38;;;;;;;-143.21;54.91;71362.34;5021982;28;20203;-88
2023/09/18 09:20:19;;;;;;;17.35;11.10;;;;;;;-143.21;53.73;71330.63;5030348;28;20210;-88
2023/09/18 09:22:46;;;;;;;18.85;12.20;;;;;;;-143.21;53.85;71308.81;5024283;28;20207;-89
2023/09/18 09:25:26;;;;;;;18.42;11.32;;;;;;;-143.21;53.37;71285.03;5028251;28;20203;-88
2023/09/18 09:27:53;;;;;;;14.32;11.15;;;;;;;-143.21;52.45;71261.22;5019761;28;20200;-88
2023/09/18 09:30:22;;;;;;;14.90;11.27;;;;;;;-143.21;52.09;71231.50;5024480;28;20198;-88
2023/09/18 09:32:53;;;;;;;14.65;10.85;;;;;;;-143.21;50.90;71199.78;5029994;28;20704;-84
2023/09/18 09:35:22;;;;;;;12.75;10.23;;;;;;;-143.21;50.07;71181.94;5033037;28;20219;-86
2023/09/18 09:37:51;;;;;;;16.77;10.20;;;;;;;-143.21;50.10;71164.09;5033731;28;20198;-85
2023/09/18 09:40:21;;;;;;;17.67;10.38;;;;;;;-143.21;49.17;71142.28;5033713;28;20264;-85
2023/09/18 09:42:53;;;;;;;17.17;10.70;;;;;;;-143.21;48.67;71110.56;5033196;28;20195;-86
2023/09/18 09:45:21;;;;;;;13.35;9.52;;;;;;;-143.21;47.81;71094.69;5033333;28;20198;-86
2023/09/18 09:47:48;;;;;;;12.45;9.30;;;;;;;-143.21;47.43;71066.94;5033160;28;20205;-87
2023/09/18 09:50:18;;;;;;;18.52;9.27;;;;;;;-143.21;47.00;71064.97;5032185;28;20241;-86
2023/09/18 09:52:48;;;;;;;11.57;8.82;;;;;;;-143.21;47.06;71025.31;5034446;28;20182;-87
2023/09/18 09:55:23;;;;;;;11.98;9.35;;;;;;;-143.21;46.47;71023.34;5032434;28;20249;-86
2023/09/18 09:57:54;;;;;;;13.15;10.05;;;;;;;-143.21;46.61;71027.28;5032652;28;20194;-86
2023/09/18 10:00:26;;;;;;;14.13;9.23;;;;;;;-143.21;46.70;71005.50;5032289;28;20191;-85
2023/09/18 10:02:58;;;;;;;12.00;9.30;;;;;;;-143.21;46.41;70995.56;5031884;28;20729;-85
2023/09/18 10:05:28;;;;;;;12.25;10.00;;;;;;;-143.21;45.99;70977.72;5032335;28;20191;-85
2023/09/18 10:07:59;;;;;;;14.38;9.27;;;;;;;-143.21;45.98;70967.81;5032638;28;20282;-86
2023/09/18 10:10:33;;;;;;;11.55;9.50;;;;;;;-143.21;45.10;70948.00;5032846;28;20237;-86
2023/09/18 10:13:07;;;;;;;11.43;9.00;;;;;;;-143.21;44.88;70906.38;5032800;28;20249;-85
2023/09/18 10:15:38;;;;;;;10.40;9.07;;;;;;;-143.21;44.48;70866.72;5032569;28;20251;-85
2023/09/18 10:18:08;;;;;;;14.85;9.13;;;;;;;-143.21;43.86;70850.88;5032579;28;20245;-86
2023/09/18 10:20:42;;;;;;;11.85;8.82;;;;;;;-143.21;43.44;70819.16;5032535;28;20230;-86
2023/09/18 10:23:28;;;;;;;11.57;8.52;;;;;;;-143.21;43.03;70793.38;5032255;28;20580;-86
2023/09/18 10:26:03;;;;;;;12.65;8.48;;;;;;;-143.21;42.07;70777.53;5032083;28;20558;-86
2023/09/18 10:28:32;;;;;;;12.32;8.43;;;;;;;-143.21;42.14;70773.56;5032467;28;20178;-85
2023/09/18 10:31:03;;;;;;;9.88;8.10;;;;;;;-143.21;41.95;70757.69;5032254;28;20201;-85
2023/09/18 10:33:31;;;;;;;11.95;8.63;;;;;;;-143.21;41.78;70714.09;5032472;28;20218;-87
2023/09/18 10:36:03;;;;;;;15.88;7.68;;;;;;;-143.21;41.19;70710.13;5031892;28;20218;-86
2023/09/18 10:38:32;;;;;;;11.05;7.82;;;;;;;-143.21;41.06;70712.09;5032291;28;20665;-87
2023/09/18 10:40:59;;;;;;;9.98;7.63;;;;;;;-143.21;40.29;70692.28;5032088;28;20218;-87
2023/09/18 10:43:26;;;;;;;18.15;7.75;;;;;;;-143.21;40.65;70688.31;5015641;28;20227;-87
2023/09/18 10:45:55;;;;;;;11.95;7.93;;;;;;;-143.21;40.79;70680.38;5011942;28;20196;-85
2023/09/18 10:48:23;;;;;;;10.35;7.55;;;;;;;-143.21;40.15;70674.44;5012246;28;20187;-87
2023/09/18 10:50:51;;;;;;;14.88;7.28;;;;;;;-143.21;39.71;70660.56;5016631;28;20218;-87
2023/09/18 10:53:20;;;;;;;10.45;7.20;;;;;;;-143.21;39.52;70618.94;5032026;28;20193;-86
2023/09/18 10:55:47;;;;;;;8.73;7.22;;;;;;;-143.21;39.10;70607.06;5031605;28;20222;-86
2023/09/18 10:58:24;;;;;;;11.57;7.03;;;;;;;-143.21;38.40;70583.25;5032144;28;20202;-87
2023/09/18 11:00:51;;;;;;;8.02;6.55;;;;;;;-143.21;38.49;70561.47;5031827;28;20569;-86
2023/09/18 11:03:20;;;;;;;8.65;6.45;;;;;;;-143.21;38.15;70523.81;5015648;28;20235;-88
2023/09/18 11:05:47;;;;;;;8.80;6.90;;;;;;;-143.21;37.62;70533.72;5015988;28;20663;-87